Wichita Mid Continent Airport
KICT : rendu visible

Aérodrome :











RETROUVEZ-NOUS SUR...

 
LOGIN :

S'inscrire | Disclaimer

   EN    FR    IT 

 









Légende :    VFR   VFR Marginal   IFR   IFR Intensif   IFR Très Intensif
Visi : 
Plafond : 
>= 8 km
>= 3000ft
5 à 8 km
1000 à 3000 ft
1500m à 5 km
500 à 1000 ft
800 à 1500m
200 à 500 ft
< 800m
< 200 ft
Symboles :   Orages  Brouillard  Fortes neiges  Fortes précipitations  Vent > 20 kt







- Altitude de l'aérodrome : 1333 ft
- Code IATA : ICT


KICT - Wichita Mid Continent

DERNIER METAR :
  • 240553Z 16015G23KT 10SM FEW050 BKN070 OVC140 24/19 A2989 RMK AO2 SLP110 T02390194 10256 20239 402720167 58007

METARs EXPIRÉS :
  • 240453Z 16014KT 10SM BKN070 OVC140 24/19 A2992 RMK AO2 SLP121 T02390189
  • 240353Z 16013KT 10SM BKN075 OVC150 24/19 A2993 RMK AO2 SLP122 T02390189

TAF KICT
Valide du 24 à 06h jusqu'au 25 à 06h UTC


240535Z 2406/2506 16012KT P6SM SCT070 OVC200 WS020/19045KT
FM240900 21011KT P6SM VCTS SCT020 BKN040CB
FIR KZKC / Amérique du Nord



MET'MAP, la Météo Aéronautique d'un coup d'oeil ! - Copyright ORBIFLY Décembre 2007 - Disclaimer

ORBIFLY MET'MAP TEAM :

Programmation & Développement : Alexandra Zaïnal
Conception & Développement : Baudouin d'Aumeries
Co-Programmation & Développement : Marc-Olivier Méhu
Soutien technique & logistique : Manuel Goepfert

Contact : metmap@orbifly.com




SOURCES & CREDITS :

   NOAA       Earth
Advisory